Time;durP1;ratioP1;P1;durP2;ratioP2;P2;SDS_P1;SDS_P2;PMS_P1;PMS_P2;Temp;Humidity;BMP_temperature;BMP_pressure;BME280_temperature;BME280_humidity;BME280_pressure;Samples;Min_cycle;Max_cycle;Signal;HPM_P1;HPM_P2
2021/04/21 04:14:21;;;;;;;11.45;2.67;;;6.60;86.80;;;;;;5044464;28;20057;-67
2021/04/21 04:16:53;;;;;;;7.78;2.40;;;7.00;83.50;;;;;;5033170;28;20547;-67
2021/04/21 04:19:20;;;;;;;16.02;2.20;;;7.40;79.90;;;;;;5037263;28;20029;-66
2021/04/21 04:21:53;;;;;;;13.68;2.35;;;7.80;77.80;;;;;;5053072;28;20098;-67
2021/04/21 04:24:22;;;;;;;13.20;2.20;;;8.00;75.40;;;;;;5052814;28;20024;-67
2021/04/21 04:26:49;;;;;;;11.95;3.30;;;8.20;74.20;;;;;;5052947;28;20055;-66
2021/04/21 04:29:14;;;;;;;15.73;2.03;;;8.40;73.10;;;;;;5051216;28;20602;-66
2021/04/21 04:31:41;;;;;;;32.63;2.75;;;8.60;72.10;;;;;;5033240;28;20091;-66
2021/04/21 04:34:08;;;;;;;11.13;2.25;;;8.90;70.70;;;;;;5032545;28;20112;-65
2021/04/21 04:36:43;;;;;;;52.78;3.83;;;9.20;70.50;;;;;;5038859;28;20033;-64
2021/04/21 04:39:09;;;;;;;6.88;1.10;;;9.60;68.70;;;;;;5052847;28;20017;-63
2021/04/21 04:41:39;;;;;;;15.82;2.63;;;10.60;85.00;;;;;;5052751;28;20041;-68
2021/04/21 04:44:06;;;;;;;6.13;2.00;;;11.60;67.90;;;;;;5052378;28;20049;-65
2021/04/21 04:46:41;;;;;;;10.25;2.40;;;11.30;63.80;;;;;;5032596;28;20025;-64
2021/04/21 04:49:12;;;;;;;10.50;2.55;;;11.20;63.90;;;;;;5042617;28;20079;-65
2021/04/21 04:51:42;;;;;;;5.53;2.08;;;11.20;70.00;;;;;;5039789;28;20025;-64
2021/04/21 04:54:09;;;;;;;14.77;2.35;;;11.40;69.00;;;;;;5047661;28;20029;-65
2021/04/21 04:56:35;;;;;;;19.50;2.38;;;11.50;69.00;;;;;;5051392;28;20056;-64
2021/04/21 04:59:06;;;;;;;11.38;2.45;;;11.50;64.10;;;;;;5045896;28;20024;-64
2021/04/21 05:01:41;;;;;;;21.23;2.78;;;11.50;63.40;;;;;;5047913;28;20028;-64
2021/04/21 05:04:10;;;;;;;7.90;2.10;;;11.60;61.60;;;;;;5046917;28;20492;-64
2021/04/21 05:06:39;;;;;;;16.33;2.73;;;11.70;61.00;;;;;;5048883;28;20097;-64
2021/04/21 05:09:10;;;;;;;28.88;2.40;;;11.60;61.00;;;;;;5043962;28;20026;-64
2021/04/21 05:11:38;;;;;;;15.05;2.55;;;11.60;60.60;;;;;;5045974;28;20144;-64
2021/04/21 05:14:10;;;;;;;14.02;2.60;;;11.70;60.30;;;;;;5037493;28;20083;-64
2021/04/21 05:16:55;;;;;;;19.27;2.35;;;11.70;60.00;;;;;;5040198;28;20029;-64
2021/04/21 05:19:38;;;;;;;16.27;2.05;;;11.80;60.00;;;;;;5034128;28;20107;-63
2021/04/21 05:22:46;;;;;;;35.40;2.97;;;11.80;59.60;;;;;;5033908;28;20465;-63
2021/04/21 05:25:34;;;;;;;10.57;2.30;;;11.70;59.50;;;;;;5034158;28;20022;-64
2021/04/21 05:28:14;;;;;;;13.68;2.72;;;11.60;59.50;;;;;;5049342;28;20010;-66
2021/04/21 05:31:08;;;;;;;15.65;2.70;;;11.60;59.80;;;;;;5047576;28;20025;-66
2021/04/21 05:33:52;;;;;;;12.32;2.10;;;11.80;59.60;;;;;;5045604;28;20029;-66
2021/04/21 05:36:54;;;;;;;12.23;2.88;;;11.80;59.30;;;;;;5047111;28;20033;-66
2021/04/21 05:40:08;;;;;;;33.22;3.58;;;11.70;59.20;;;;;;5035674;28;20021;-66
2021/04/21 05:42:55;;;;;;;17.33;1.95;;;11.80;59.20;;;;;;5049287;28;20047;-66
2021/04/21 05:45:32;;;;;;;14.90;2.40;;;12.10;58.80;;;;;;5035133;28;20480;-66
2021/04/21 05:48:13;;;;;;;16.92;2.65;;;12.50;58.20;;;;;;5036764;28;20425;-66
2021/04/21 05:51:10;;;;;;;11.27;2.13;;;12.70;57.70;;;;;;5045906;28;20016;-64
2021/04/21 05:53:57;;;;;;;32.22;2.97;;;13.00;57.00;;;;;;5043326;28;20064;-66
2021/04/21 05:56:34;;;;;;;7.70;1.70;;;13.40;56.60;;;;;;5041847;28;20029;-65
2021/04/21 05:59:08;;;;;;;15.95;2.72;;;13.90;55.50;;;;;;5046428;28;20033;-66
2021/04/21 06:01:36;;;;;;;21.35;2.63;;;14.10;54.90;;;;;;5051463;28;20033;-67
2021/04/21 06:04:02;;;;;;;23.65;2.70;;;14.10;54.30;;;;;;5051560;28;20021;-66
2021/04/21 06:06:28;;;;;;;10.85;2.17;;;14.20;55.20;;;;;;5048793;28;20147;-66
2021/04/21 06:08:55;;;;;;;15.35;3.17;;;14.40;53.70;;;;;;5039938;28;20047;-65
2021/04/21 06:11:23;;;;;;;15.27;2.58;;;14.50;53.90;;;;;;5051023;28;20039;-65
2021/04/21 06:13:51;;;;;;;13.65;1.73;;;14.80;53.60;;;;;;5050601;28;20389;-65
2021/04/21 06:16:18;;;;;;;17.30;2.00;;;15.00;53.10;;;;;;5039802;28;20032;-65
2021/04/21 06:18:50;;;;;;;17.15;2.00;;;15.00;52.20;;;;;;5039501;28;20082;-65
2021/04/21 06:21:19;;;;;;;13.55;1.90;;;14.90;52.40;;;;;;5046138;28;20029;-64
2021/04/21 06:23:46;;;;;;;7.07;1.95;;;14.90;53.30;;;;;;5031128;28;20022;-65
2021/04/21 06:26:21;;;;;;;10.95;2.30;;;14.90;52.40;;;;;;5047999;28;20033;-67
2021/04/21 06:29:08;;;;;;;10.75;1.80;;;14.90;52.10;;;;;;5045120;28;20152;-68
2021/04/21 06:31:39;;;;;;;6.10;1.30;;;15.00;51.80;;;;;;5046121;28;20033;-67
2021/04/21 06:34:06;;;;;;;9.27;1.52;;;14.90;51.40;;;;;;5050493;28;20472;-68
2021/04/21 06:36:44;;;;;;;20.77;3.20;;;14.80;51.50;;;;;;5048028;28;20013;-66
2021/04/21 06:39:11;;;;;;;43.70;2.78;;;15.00;52.50;;;;;;5040050;28;20111;-67
2021/04/21 06:41:37;;;;;;;5.63;1.55;;;15.10;51.60;;;;;;5050122;28;20021;-67
2021/04/21 06:44:03;;;;;;;24.83;2.15;;;15.20;51.20;;;;;;5050085;28;20495;-67
2021/04/21 06:46:29;;;;;;;15.82;2.30;;;15.30;51.30;;;;;;5033918;28;20025;-67
2021/04/21 06:49:00;;;;;;;29.67;3.05;;;15.10;51.20;;;;;;5030314;28;20029;-67
2021/04/21 06:51:28;;;;;;;58.47;3.80;;;15.10;51.20;;;;;;5031966;28;20034;-67
2021/04/21 06:53:55;;;;;;;11.38;2.00;;;15.10;51.40;;;;;;5049496;28;20028;-66
2021/04/21 06:56:33;;;;;;;4.43;1.60;;;15.20;50.80;;;;;;5054190;28;20021;-67
2021/04/21 06:59:01;;;;;;;14.45;1.83;;;15.30;50.60;;;;;;5047963;28;20025;-67
2021/04/21 07:01:30;;;;;;;6.15;1.38;;;15.20;50.80;;;;;;5032653;28;20034;-67
2021/04/21 07:04:15;;;;;;;6.57;1.70;;;14.90;50.10;;;;;;5036800;28;20032;-67
2021/04/21 07:06:43;;;;;;;12.00;1.48;;;14.80;50.80;;;;;;5034421;28;20116;-67
2021/04/21 07:09:22;;;;;;;13.13;1.67;;;14.50;51.80;;;;;;5041005;28;20111;-67
2021/04/21 07:11:57;;;;;;;8.15;1.38;;;14.50;52.20;;;;;;5053839;28;20071;-66
2021/04/21 07:14:24;;;;;;;12.80;1.38;;;14.40;52.10;;;;;;5053349;28;20422;-65
2021/04/21 07:16:54;;;;;;;8.80;1.40;;;14.30;51.20;;;;;;5041293;28;20033;-65
2021/04/21 07:19:21;;;;;;;4.85;1.13;;;14.20;51.20;;;;;;5033446;28;20029;-65
2021/04/21 07:21:48;;;;;;;9.40;1.73;;;14.00;51.50;;;;;;5042036;28;20057;-65
2021/04/21 07:24:17;;;;;;;4.60;1.23;;;13.90;52.00;;;;;;5036242;28;20061;-67
2021/04/21 07:26:46;;;;;;;6.80;1.65;;;13.90;51.70;;;;;;5035934;28;20029;-65
2021/04/21 07:29:25;;;;;;;23.50;1.88;;;13.80;52.10;;;;;;5038736;28;20075;-65
2021/04/21 07:31:53;;;;;;;6.82;1.23;;;13.80;52.10;;;;;;5046969;28;20037;-67
2021/04/21 07:34:33;;;;;;;56.22;4.13;;;13.70;52.00;;;;;;5042274;28;20112;-66
2021/04/21 07:37:00;;;;;;;6.60;1.55;;;13.80;52.40;;;;;;5048035;28;20037;-67
2021/04/21 07:39:37;;;;;;;4.90;1.15;;;13.80;51.90;;;;;;5047745;28;20021;-66
2021/04/21 07:42:05;;;;;;;7.57;1.70;;;13.80;51.90;;;;;;5046769;28;20025;-68
2021/04/21 07:44:36;;;;;;;8.70;1.90;;;13.80;52.20;;;;;;5033692;28;20029;-68
2021/04/21 07:47:07;;;;;;;10.38;1.70;;;13.70;52.20;;;;;;5035630;28;20036;-69
2021/04/21 07:49:36;;;;;;;20.40;1.90;;;13.70;52.30;;;;;;5035729;28;20055;-68
2021/04/21 07:52:02;;;;;;;11.35;2.30;;;13.60;52.40;;;;;;5039576;28;20021;-70
2021/04/21 07:54:30;;;;;;;6.47;1.35;;;13.70;52.10;;;;;;5049564;28;20388;-68
2021/04/21 07:57:10;;;;;;;11.40;1.70;;;13.90;52.00;;;;;;5053353;28;20404;-79
2021/04/21 07:59:40;;;;;;;53.03;3.75;;;13.90;51.90;;;;;;5044570;28;20021;-73
2021/04/21 08:02:16;;;;;;;4.68;1.10;;;14.00;51.70;;;;;;5044733;28;20048;-73
2021/04/21 08:04:59;;;;;;;13.55;1.38;;;14.10;52.00;;;;;;5068382;28;20396;-75
2021/04/21 08:07:30;;;;;;;15.82;2.38;;;14.20;50.60;;;;;;5049704;28;20079;-75
2021/04/21 08:09:57;;;;;;;10.90;1.20;;;14.40;50.30;;;;;;5045739;28;20467;-73
2021/04/21 08:12:26;;;;;;;9.40;1.92;;;14.50;50.00;;;;;;5035685;28;20030;-73
2021/04/21 08:14:57;;;;;;;9.20;1.30;;;14.50;49.30;;;;;;5045105;28;20064;-72
2021/04/21 08:17:23;;;;;;;7.38;1.20;;;14.50;49.30;;;;;;5032761;28;20493;-73
2021/04/21 08:19:57;;;;;;;11.73;1.27;;;14.40;49.00;;;;;;5035209;28;20025;-73
2021/04/21 08:22:26;;;;;;;23.40;2.30;;;14.30;49.40;;;;;;5044293;28;20037;-73
2021/04/21 08:24:54;;;;;;;16.17;1.67;;;14.30;49.30;;;;;;5048046;28;20542;-73
2021/04/21 08:27:22;;;;;;;10.40;1.10;;;14.30;49.10;;;;;;5038519;28;20048;-74
2021/04/21 08:29:50;;;;;;;159.60;11.32;;;14.40;48.90;;;;;;5052131;28;20098;-73
2021/04/21 08:32:23;;;;;;;7.97;1.40;;;14.30;49.20;;;;;;5052233;28;20029;-71
2021/04/21 08:34:50;;;;;;;6.68;1.30;;;14.30;48.80;;;;;;5052753;28;20531;-74
2021/04/21 08:37:17;;;;;;;2.38;1.50;;;14.30;48.80;;;;;;5047820;28;20017;-74
2021/04/21 08:39:43;;;;;;;3.72;1.20;;;14.30;48.50;;;;;;5043893;28;20562;-74
2021/04/21 08:42:12;;;;;;;9.90;1.50;;;14.30;48.40;;;;;;5052006;28;20124;-74
2021/04/21 08:44:42;;;;;;;14.98;1.60;;;14.30;48.10;;;;;;5050049;28;20024;-74
2021/04/21 08:47:13;;;;;;;17.05;2.22;;;14.10;48.20;;;;;;5032525;28;20029;-74
2021/04/21 08:49:40;;;;;;;10.20;1.30;;;14.10;49.00;;;;;;5045633;28;20347;-74
2021/04/21 08:52:06;;;;;;;18.25;2.47;;;14.00;49.00;;;;;;5051536;28;20024;-74
2021/04/21 08:54:33;;;;;;;10.68;1.77;;;14.00;48.80;;;;;;5042254;28;20761;-74
2021/04/21 08:57:00;;;;;;;10.00;1.30;;;14.00;49.00;;;;;;5042763;28;20434;-74
2021/04/21 08:59:26;;;;;;;22.80;1.73;;;14.00;49.00;;;;;;5047887;28;20017;-73
2021/04/21 09:01:52;;;;;;;11.13;1.63;;;14.10;50.30;;;;;;5042635;28;20040;-71
2021/04/21 09:04:18;;;;;;;7.13;1.52;;;14.20;49.10;;;;;;5042457;28;20029;-73
2021/04/21 09:06:46;;;;;;;4.95;1.13;;;14.10;48.40;;;;;;5051509;28;20077;-73
2021/04/21 09:09:17;;;;;;;8.55;1.70;;;14.10;48.20;;;;;;5051761;28;20017;-72
2021/04/21 09:11:44;;;;;;;6.70;1.58;;;14.10;48.40;;;;;;5041059;28;20025;-73
2021/04/21 09:14:10;;;;;;;19.00;2.05;;;14.20;48.40;;;;;;5039712;28;20041;-73
2021/04/21 09:16:37;;;;;;;16.75;1.17;;;14.30;48.50;;;;;;5041250;28;20389;-73
2021/04/21 09:19:12;;;;;;;16.73;2.45;;;14.30;47.80;;;;;;5039378;28;20032;-73
2021/04/21 09:21:38;;;;;;;4.10;1.30;;;14.30;48.10;;;;;;5051361;28;20449;-73
2021/04/21 09:24:25;;;;;;;8.82;1.75;;;14.40;48.00;;;;;;5044492;28;20025;-73
2021/04/21 09:26:51;;;;;;;43.30;3.67;;;14.40;48.30;;;;;;5031502;28;20064;-73
2021/04/21 09:29:25;;;;;;;9.35;1.60;;;14.40;48.00;;;;;;5032574;28;20178;-72
2021/04/21 09:32:05;;;;;;;6.45;1.40;;;14.40;47.40;;;;;;5036924;28;20025;-73
2021/04/21 09:34:30;;;;;;;2.55;1.08;;;14.40;47.70;;;;;;5034344;28;20021;-71
2021/04/21 09:36:56;;;;;;;8.50;1.20;;;14.30;47.70;;;;;;5045995;28;20051;-74
2021/04/21 09:39:24;;;;;;;5.40;1.50;;;14.40;48.10;;;;;;5051201;28;20104;-73
2021/04/21 09:41:57;;;;;;;10.95;2.05;;;14.30;48.20;;;;;;5051213;28;20040;-74
2021/04/21 09:44:28;;;;;;;6.43;1.15;;;14.40;48.20;;;;;;5037160;28;20219;-73
2021/04/21 09:46:55;;;;;;;8.88;1.10;;;14.50;48.60;;;;;;5051168;28;20164;-70
2021/04/21 09:49:34;;;;;;;10.25;1.60;;;14.30;48.70;;;;;;5050815;28;20025;-78
2021/04/21 09:52:22;;;;;;;9.10;1.33;;;14.20;48.90;;;;;;5046533;28;20025;-75
2021/04/21 09:54:49;;;;;;;19.75;1.33;;;14.20;48.90;;;;;;5040522;28;20108;-77
2021/04/21 09:57:25;;;;;;;49.67;3.30;;;14.50;48.30;;;;;;5050581;28;20029;-76
2021/04/21 10:00:02;;;;;;;7.25;1.60;;;14.60;48.00;;;;;;5036755;28;20017;-77
2021/04/21 10:02:41;;;;;;;51.78;3.03;;;14.60;47.40;;;;;;5036383;28;20025;-76
2021/04/21 10:05:28;;;;;;;9.95;1.63;;;14.60;47.60;;;;;;5031057;28;20030;-76
2021/04/21 10:08:33;;;;;;;24.70;2.22;;;14.50;47.80;;;;;;5030966;28;20492;-76
2021/04/21 10:11:01;;;;;;;8.27;1.30;;;14.20;48.30;;;;;;5045729;28;20033;-76
2021/04/21 10:13:39;;;;;;;7.15;1.10;;;14.20;48.10;;;;;;5050612;28;20492;-75
2021/04/21 10:16:06;;;;;;;4.85;1.27;;;14.30;48.20;;;;;;5050817;28;20064;-76
2021/04/21 10:18:32;;;;;;;8.63;1.65;;;14.20;47.70;;;;;;5050649;28;20022;-76
2021/04/21 10:20:57;;;;;;;17.80;2.03;;;14.20;48.00;;;;;;5031234;28;20080;-76
2021/04/21 10:23:23;;;;;;;12.13;1.95;;;14.20;48.00;;;;;;5048981;28;20029;-76
2021/04/21 10:25:49;;;;;;;9.20;1.77;;;14.10;48.30;;;;;;5042491;28;20377;-76
2021/04/21 10:28:15;;;;;;;16.33;2.03;;;14.20;48.60;;;;;;5050610;28;20040;-76
2021/04/21 10:30:41;;;;;;;16.98;2.20;;;14.20;49.20;;;;;;5045105;28;20025;-76
2021/04/21 10:33:09;;;;;;;7.50;1.40;;;14.20;49.30;;;;;;5042583;28;20532;-76
2021/04/21 10:35:35;;;;;;;10.70;1.63;;;14.20;49.90;;;;;;5054740;28;20033;-76
2021/04/21 10:38:01;;;;;;;14.38;1.90;;;14.10;50.30;;;;;;5040786;28;20028;-76
2021/04/21 10:40:32;;;;;;;49.13;4.00;;;14.00;50.60;;;;;;5046474;28;20021;-68
2021/04/21 10:43:03;;;;;;;9.45;1.70;;;13.90;51.70;;;;;;5038685;28;20060;-76
2021/04/21 10:45:30;;;;;;;10.65;1.38;;;13.80;51.80;;;;;;5039358;28;20025;-73
2021/04/21 10:47:57;;;;;;;20.45;2.13;;;13.80;51.60;;;;;;5054118;28;20385;-77
2021/04/21 10:50:41;;;;;;;5.00;1.35;;;13.80;51.90;;;;;;5046967;28;20029;-72
2021/04/21 10:53:29;;;;;;;8.90;1.52;;;13.80;51.80;;;;;;5052175;28;20017;-73
2021/04/21 10:55:55;;;;;;;38.92;3.10;;;13.60;51.40;;;;;;5051346;28;20018;-72
2021/04/21 10:58:21;;;;;;;45.85;2.42;;;13.50;52.50;;;;;;5041190;28;20104;-72
2021/04/21 11:00:48;;;;;;;103.35;5.93;;;13.60;52.10;;;;;;5054299;28;20132;-72
2021/04/21 11:03:15;;;;;;;7.80;1.42;;;13.60;52.00;;;;;;5054525;28;20116;-72
2021/04/21 11:05:47;;;;;;;6.20;1.70;;;13.70;51.40;;;;;;5040474;28;20047;-72
2021/04/21 11:08:15;;;;;;;5.10;1.30;;;13.80;50.80;;;;;;5054518;28;20440;-72
2021/04/21 11:11:03;;;;;;;9.02;1.20;;;13.80;50.30;;;;;;5054101;28;20107;-73
2021/04/21 11:13:38;;;;;;;14.45;1.77;;;13.90;50.20;;;;;;5054123;28;20392;-72
2021/04/21 11:16:12;;;;;;;5.88;1.42;;;14.00;50.30;;;;;;5054356;28;20044;-72
2021/04/21 11:18:39;;;;;;;11.85;1.73;;;14.10;50.60;;;;;;5054110;28;20082;-72
2021/04/21 11:21:07;;;;;;;24.55;2.10;;;14.10;50.80;;;;;;5041576;28;20037;-71
2021/04/21 11:23:56;;;;;;;9.93;1.23;;;14.10;50.50;;;;;;5044641;28;20048;-71
2021/04/21 11:26:25;;;;;;;118.00;5.43;;;14.20;50.10;;;;;;5053986;28;20100;-74
2021/04/21 11:29:02;;;;;;;14.50;1.97;;;14.10;50.40;;;;;;5054220;28;20016;-74
2021/04/21 11:31:49;;;;;;;17.38;1.92;;;14.00;50.30;;;;;;5053816;28;20105;-71
2021/04/21 11:34:30;;;;;;;18.33;2.25;;;14.00;51.00;;;;;;5046431;28;20041;-72
2021/04/21 11:37:12;;;;;;;9.60;1.90;;;14.40;52.90;;;;;;5052349;28;20017;-72
2021/04/21 11:39:41;;;;;;;20.50;2.70;;;14.30;50.20;;;;;;5053744;28;20040;-72
2021/04/21 11:42:33;;;;;;;6.00;1.38;;;14.00;50.20;;;;;;5040224;28;20040;-72
2021/04/21 11:45:14;;;;;;;5.70;1.42;;;13.90;50.20;;;;;;5053864;28;20166;-72
2021/04/21 11:47:47;;;;;;;7.43;1.50;;;13.90;50.00;;;;;;5053564;28;20465;-72
2021/04/21 11:50:27;;;;;;;13.65;1.92;;;14.00;49.60;;;;;;5053490;28;20519;-72
2021/04/21 11:53:17;;;;;;;62.42;4.15;;;13.90;49.00;;;;;;5033737;28;20473;-71
2021/04/21 11:55:52;;;;;;;10.25;1.70;;;13.90;49.20;;;;;;5050564;28;20523;-71
2021/04/21 11:58:21;;;;;;;21.52;1.95;;;13.90;48.20;;;;;;5043392;28;20037;-71
2021/04/21 12:00:56;;;;;;;5.32;1.90;;;13.90;48.20;;;;;;5033356;28;20029;-71
2021/04/21 12:03:26;;;;;;;14.98;2.10;;;14.00;48.90;;;;;;5047325;28;20068;-71
2021/04/21 12:06:07;;;;;;;12.20;2.42;;;14.00;49.60;;;;;;5033463;28;20108;-71
2021/04/21 12:08:38;;;;;;;6.18;1.58;;;14.00;49.70;;;;;;5036950;28;20059;-72
2021/04/21 12:11:05;;;;;;;154.18;9.57;;;14.00;49.10;;;;;;5053513;28;20021;-71
2021/04/21 12:13:36;;;;;;;18.00;2.33;;;14.00;48.60;;;;;;5049854;28;20075;-71
2021/04/21 12:16:22;;;;;;;7.90;1.65;;;14.10;48.20;;;;;;5033378;28;20492;-71
2021/04/21 12:18:50;;;;;;;6.90;1.02;;;14.00;47.60;;;;;;5033089;28;20049;-71
2021/04/21 12:21:16;;;;;;;82.57;4.75;;;14.00;46.90;;;;;;5035349;28;20045;-72
2021/04/21 12:23:51;;;;;;;18.40;1.88;;;13.90;47.50;;;;;;5032757;28;20022;-72
2021/04/21 12:26:26;;;;;;;13.60;1.65;;;13.90;48.30;;;;;;5049009;28;20082;-72
2021/04/21 12:28:57;;;;;;;8.18;1.23;;;13.90;48.20;;;;;;5052960;28;20027;-72
2021/04/21 12:31:24;;;;;;;40.17;2.95;;;13.80;48.10;;;;;;5036522;28;20056;-72
2021/04/21 12:33:53;;;;;;;7.22;1.63;;;13.80;48.10;;;;;;5041108;28;20017;-71
2021/04/21 12:36:22;;;;;;;15.98;1.73;;;13.70;48.50;;;;;;5038723;28;20043;-71
2021/04/21 12:39:14;;;;;;;11.45;1.58;;;13.80;47.80;;;;;;5045171;28;20040;-71
2021/04/21 12:41:42;;;;;;;9.05;1.38;;;13.80;45.30;;;;;;5032687;28;20033;-71
2021/04/21 12:44:18;;;;;;;2.25;1.08;;;13.80;45.40;;;;;;5032544;28;20026;-71
2021/04/21 12:46:47;;;;;;;5.38;1.40;;;13.80;45.20;;;;;;5032604;28;20025;-71
2021/04/21 12:49:14;;;;;;;6.22;1.60;;;13.80;45.30;;;;;;5039693;28;20103;-71
2021/04/21 12:51:47;;;;;;;5.65;1.70;;;13.80;45.40;;;;;;5052298;28;20029;-71
2021/04/21 12:54:37;;;;;;;6.97;1.67;;;13.90;45.20;;;;;;5047456;28;20026;-71
2021/04/21 12:57:04;;;;;;;8.50;1.80;;;13.90;45.00;;;;;;5046558;28;20031;-71
2021/04/21 12:59:42;;;;;;;8.18;1.70;;;14.00;46.10;;;;;;5038596;28;20029;-71
2021/04/21 13:02:12;;;;;;;86.63;4.90;;;14.00;46.70;;;;;;5052235;28;20037;-71
2021/04/21 13:04:39;;;;;;;;;;;13.90;46.50;;;;;;5035798;28;20041;-71
2021/04/21 13:07:24;;;;;;;11.05;1.60;;;14.00;46.70;;;;;;5032670;28;19905;-71
2021/04/21 13:10:04;;;;;;;11.23;1.63;;;13.90;46.70;;;;;;5038747;28;20020;-71
2021/04/21 13:12:30;;;;;;;5.93;1.75;;;13.80;47.20;;;;;;5037313;28;20484;-72
2021/04/21 13:15:15;;;;;;;6.97;1.58;;;13.80;46.60;;;;;;5032510;28;20056;-71
2021/04/21 13:17:48;;;;;;;9.13;1.75;;;13.80;46.90;;;;;;5046112;28;20024;-71
2021/04/21 13:20:15;;;;;;;4.63;1.20;;;13.80;46.80;;;;;;5040333;28;20040;-71
2021/04/21 13:22:41;;;;;;;5.65;1.52;;;13.80;45.90;;;;;;5037594;28;20036;-71
2021/04/21 13:25:19;;;;;;;13.57;1.90;;;13.80;46.00;;;;;;5051898;28;20013;-72
2021/04/21 13:27:44;;;;;;;9.13;1.65;;;13.90;45.50;;;;;;5034343;28;20042;-72
2021/04/21 13:30:15;;;;;;;9.20;1.50;;;13.90;45.00;;;;;;5045879;28;20032;-72
2021/04/21 13:32:50;;;;;;;13.15;1.60;;;13.90;44.80;;;;;;5039372;28;20030;-72
2021/04/21 13:35:21;;;;;;;8.85;1.80;;;13.90;44.90;;;;;;5037772;28;20021;-72
2021/04/21 13:37:50;;;;;;;13.88;2.72;;;13.90;45.00;;;;;;5043851;28;20029;-72
2021/04/21 13:40:19;;;;;;;7.03;1.77;;;13.90;45.00;;;;;;5032009;28;20053;-72
2021/04/21 13:42:47;;;;;;;11.95;1.50;;;13.90;44.80;;;;;;5036919;28;20280;-72
2021/04/21 13:45:18;;;;;;;19.17;1.92;;;13.90;45.20;;;;;;5051530;28;20521;-71
2021/04/21 13:47:46;;;;;;;10.93;2.08;;;13.90;45.30;;;;;;5037229;28;20024;-71
2021/04/21 13:50:15;;;;;;;15.88;1.88;;;14.00;45.60;;;;;;5051674;28;20464;-71
2021/04/21 13:52:41;;;;;;;11.87;3.03;;;14.00;45.40;;;;;;5045370;28;20056;-71
2021/04/21 13:55:11;;;;;;;20.45;2.65;;;14.00;44.60;;;;;;5043489;28;20079;-71
2021/04/21 13:57:37;;;;;;;4.90;1.40;;;13.90;45.10;;;;;;5032329;28;20053;-71
2021/04/21 14:00:07;;;;;;;5.22;1.80;;;13.90;45.00;;;;;;5041797;28;20515;-71
2021/04/21 14:02:33;;;;;;;8.80;1.98;;;13.90;45.10;;;;;;5051130;28;20025;-71
2021/04/21 14:04:59;;;;;;;3.88;1.52;;;13.90;44.60;;;;;;5040854;28;20048;-71
2021/04/21 14:07:24;;;;;;;10.98;1.63;;;13.90;44.50;;;;;;5039565;28;20520;-71
2021/04/21 14:09:51;;;;;;;9.98;2.08;;;13.90;44.60;;;;;;5050977;28;20025;-71
2021/04/21 14:12:17;;;;;;;3.80;1.30;;;13.80;44.60;;;;;;5045056;28;20456;-71
2021/04/21 14:14:42;;;;;;;15.73;2.05;;;13.80;44.80;;;;;;5030626;28;20038;-71
2021/04/21 14:17:08;;;;;;;12.93;2.13;;;13.80;45.60;;;;;;5049538;28;20025;-70
2021/04/21 14:19:35;;;;;;;7.15;1.40;;;13.80;46.30;;;;;;5051407;28;20032;-71
2021/04/21 14:22:02;;;;;;;11.80;2.10;;;13.80;45.30;;;;;;5051332;28;20036;-70
2021/04/21 14:24:28;;;;;;;6.55;2.13;;;13.80;45.70;;;;;;5051082;28;20775;-69
2021/04/21 14:26:54;;;;;;;7.40;1.35;;;13.90;45.50;;;;;;5041421;28;20116;-69
2021/04/21 14:29:20;;;;;;;7.47;1.40;;;13.80;45.70;;;;;;5038576;28;20096;-70
2021/04/21 14:31:45;;;;;;;12.52;1.63;;;14.00;47.10;;;;;;5037677;28;20396;-69
2021/04/21 14:34:11;;;;;;;7.00;1.63;;;14.00;45.30;;;;;;5050534;28;20025;-69
2021/04/21 14:36:37;;;;;;;6.82;1.42;;;13.90;45.30;;;;;;5036982;28;20108;-69
2021/04/21 14:39:05;;;;;;;8.20;1.40;;;13.80;45.10;;;;;;5034644;28;20414;-69
2021/04/21 14:41:34;;;;;;;73.63;4.13;;;13.80;45.50;;;;;;5031512;28;20044;-69
2021/04/21 14:43:59;;;;;;;5.20;1.75;;;13.70;45.10;;;;;;5051255;28;20032;-69
2021/04/21 14:46:25;;;;;;;9.23;1.83;;;13.60;45.70;;;;;;5037236;28;20424;-69
2021/04/21 14:48:51;;;;;;;8.77;1.60;;;13.60;45.00;;;;;;5041689;28;20112;-69
2021/04/21 14:51:18;;;;;;;4.03;1.75;;;13.60;45.30;;;;;;5045614;28;20025;-69
2021/04/21 14:53:44;;;;;;;10.75;2.05;;;13.60;45.30;;;;;;5050630;28;20021;-69
2021/04/21 14:56:12;;;;;;;7.68;2.13;;;13.60;45.40;;;;;;5051367;28;20075;-69
2021/04/21 14:58:37;;;;;;;7.93;1.83;;;13.60;45.00;;;;;;5050658;28;20473;-69
2021/04/21 15:01:03;;;;;;;18.58;1.92;;;13.50;45.20;;;;;;5050666;28;20039;-69
2021/04/21 15:03:29;;;;;;;22.65;2.38;;;13.50;45.20;;;;;;5036495;28;20079;-69
2021/04/21 15:05:55;;;;;;;10.27;1.80;;;13.50;45.00;;;;;;5041347;28;20029;-69
2021/04/21 15:08:21;;;;;;;12.25;1.60;;;13.50;45.50;;;;;;5046577;28;20079;-69
2021/04/21 15:10:47;;;;;;;16.13;1.85;;;13.50;45.40;;;;;;5050653;28;20025;-69
2021/04/21 15:13:14;;;;;;;3.08;1.45;;;13.50;45.00;;;;;;5052715;28;20039;-70
2021/04/21 15:15:40;;;;;;;14.63;2.20;;;13.50;44.80;;;;;;5054214;28;20036;-70
2021/04/21 15:18:06;;;;;;;10.43;1.80;;;13.50;44.60;;;;;;5054476;28;20029;-70
2021/04/21 15:20:32;;;;;;;8.75;1.92;;;13.50;44.60;;;;;;5050223;28;20488;-70
2021/04/21 15:22:58;;;;;;;28.00;2.58;;;13.50;44.90;;;;;;5044355;28;20022;-70
2021/04/21 15:25:24;;;;;;;9.45;1.60;;;13.50;44.90;;;;;;5054259;28;20021;-70
2021/04/21 15:27:51;;;;;;;9.70;1.50;;;13.50;44.60;;;;;;5054324;28;20484;-70
2021/04/21 15:30:20;;;;;;;10.23;1.77;;;13.50;44.90;;;;;;5053916;28;20013;-70
2021/04/21 15:32:47;;;;;;;4.93;1.50;;;13.50;45.00;;;;;;5053909;28;20029;-70
2021/04/21 15:35:15;;;;;;;9.35;1.67;;;13.50;44.90;;;;;;5054058;28;20021;-70
2021/04/21 15:37:45;;;;;;;6.85;1.25;;;13.50;45.20;;;;;;5039730;28;20029;-70
2021/04/21 15:40:17;;;;;;;15.05;1.90;;;13.50;44.60;;;;;;5054402;28;20032;-70
2021/04/21 15:42:46;;;;;;;3.05;1.33;;;13.50;44.70;;;;;;5035649;28;20042;-70
2021/04/21 15:45:17;;;;;;;8.65;1.50;;;13.40;44.70;;;;;;5034046;28;20022;-70
2021/04/21 15:47:44;;;;;;;3.72;1.60;;;13.40;44.60;;;;;;5037516;28;20029;-70
2021/04/21 15:50:13;;;;;;;39.20;3.05;;;13.30;45.10;;;;;;5053211;28;20112;-69
2021/04/21 15:52:39;;;;;;;8.30;1.80;;;13.20;45.20;;;;;;5053362;28;20047;-69
2021/04/21 15:55:06;;;;;;;6.22;1.27;;;13.20;45.00;;;;;;5053514;28;20111;-69
2021/04/21 15:57:33;;;;;;;12.02;2.08;;;13.20;44.80;;;;;;5049549;28;20029;-70
2021/04/21 15:59:59;;;;;;;4.55;1.40;;;13.20;45.10;;;;;;5053639;28;20111;-70
2021/04/21 16:02:26;;;;;;;10.18;1.83;;;13.20;45.40;;;;;;5053275;28;20087;-69
2021/04/21 16:04:53;;;;;;;11.48;1.60;;;13.30;54.60;;;;;;5052763;28;20025;-70
2021/04/21 16:07:21;;;;;;;3.58;1.50;;;13.80;48.10;;;;;;5049581;28;20049;-70
2021/04/21 16:09:48;;;;;;;115.28;6.28;;;13.70;45.80;;;;;;5034960;28;20018;-70
2021/04/21 16:12:15;;;;;;;6.30;1.33;;;13.50;45.10;;;;;;5039333;28;20025;-69
2021/04/21 16:14:40;;;;;;;5.38;1.55;;;13.40;45.20;;;;;;5053174;28;20049;-70
2021/04/21 16:17:06;;;;;;;6.85;1.75;;;13.30;45.10;;;;;;5039014;28;20032;-70
2021/04/21 16:19:32;;;;;;;6.05;1.27;;;13.20;45.50;;;;;;5053113;28;20025;-70
2021/04/21 16:21:58;;;;;;;11.63;1.70;;;13.20;45.60;;;;;;5052014;28;20362;-70
2021/04/21 16:24:24;;;;;;;12.45;1.70;;;13.10;45.40;;;;;;5032909;28;20030;-70
2021/04/21 16:26:49;;;;;;;9.82;1.90;;;13.10;45.50;;;;;;5033208;28;20060;-70
2021/04/21 16:29:16;;;;;;;12.43;2.03;;;13.00;45.40;;;;;;5041703;28;20441;-70
2021/04/21 16:31:42;;;;;;;22.52;2.08;;;13.00;45.40;;;;;;5037501;28;20060;-69
2021/04/21 16:34:08;;;;;;;20.85;2.40;;;13.00;45.40;;;;;;5032813;28;20103;-69
2021/04/21 16:36:34;;;;;;;18.20;2.85;;;13.00;45.60;;;;;;5035440;28;20076;-69
2021/04/21 16:39:00;;;;;;;23.67;1.80;;;13.00;45.90;;;;;;5035040;28;20021;-69
2021/04/21 16:41:26;;;;;;;27.10;3.20;;;13.40;57.60;;;;;;5039710;28;20112;-70
2021/04/21 16:43:52;;;;;;;20.25;2.42;;;13.70;50.20;;;;;;5051200;28;20052;-70
2021/04/21 16:46:18;;;;;;;5.13;1.55;;;13.70;47.10;;;;;;5045432;28;20068;-68
2021/04/21 16:48:44;;;;;;;8.70;1.65;;;13.40;45.60;;;;;;5050917;28;20028;-68
2021/04/21 16:51:10;;;;;;;11.05;1.33;;;13.30;45.60;;;;;;5052451;28;20021;-68
2021/04/21 16:53:37;;;;;;;8.18;1.40;;;13.20;45.80;;;;;;5052372;28;20064;-68
2021/04/21 16:56:04;;;;;;;5.55;1.80;;;13.10;46.00;;;;;;5051470;28;20112;-69
2021/04/21 16:58:29;;;;;;;8.77;1.80;;;13.10;46.10;;;;;;5052640;28;20033;-68
2021/04/21 17:00:58;;;;;;;12.63;1.70;;;13.10;46.10;;;;;;5051150;28;20029;-68
2021/04/21 17:03:24;;;;;;;39.17;2.75;;;13.10;46.30;;;;;;5052670;28;20079;-68
2021/04/21 17:05:57;;;;;;;16.10;1.80;;;13.00;45.80;;;;;;5049919;28;20530;-68
2021/04/21 17:08:23;;;;;;;17.27;1.90;;;13.00;46.00;;;;;;5032653;28;20033;-68
2021/04/21 17:10:49;;;;;;;21.33;1.92;;;12.90;46.00;;;;;;5047420;28;20416;-68
2021/04/21 17:13:14;;;;;;;18.10;2.00;;;12.90;46.30;;;;;;5052096;28;20027;-69